Latest Weather Observations for Coonamble

IDN60801

Issued at 9:32 pm EST Wednesday 4 May 2016 (issued every 30 minutes, with the page automatically refreshed every 10 minutes)

About weather observations | Map of weather stations | Latest weather observations for NSW | Other Formats
Station Details ID: 051161 Name: COONAMBLE AIRPORT AWS Lat: -30.98 Lon: 148.38 Height: 181.3 m
Data from the previous 72 hours. | See also: Recent months at Coonamble
Date/Time
EST
Temp
°C
App
Temp
°C
Dew
Point
Rel
Hum
%
Delta-T
°C
Wind Press
QNH
hPa
Press
MSL
hPa
Rain
since 9 am
mm
Dir
 
Spd
km/h
Gust
km/h
Spd
kts
Gust
kts
04/09:30pm 14.9 14.8 13.8 93 0.6 SSE 7 9 4 5 1019.8 1019.7 0.0
04/09:00pm 15.4 15.2 14.6 95 0.5 SE 9 11 5 6 1019.6 1019.5 0.0
04/08:30pm 15.5 15.3 13.5 88 1.1 SE 7 7 4 4 1019.3 1019.2 0.0
04/08:00pm 16.0 15.8 13.1 83 1.6 SE 6 7 3 4 1019.0 1018.9 0.0
04/07:30pm 16.5 16.2 13.4 82 1.8 SSE 7 9 4 5 1018.6 1018.4 0.0
04/07:00pm 16.7 16.6 13.2 80 2.0 SSE 6 7 3 4 1018.3 1018.1 0.0
04/06:30pm 17.9 18.8 13.0 73 2.8 CALM 0 4 0 2 1018.0 1017.8 0.0
04/06:00pm 18.3 17.8 12.5 69 3.3 SSW 7 9 4 5 1017.4 1017.2 0.0
04/05:30pm 19.4 18.4 12.2 63 4.0 SSW 9 9 5 5 1016.9 1016.8 0.0
04/05:00pm 21.6 19.8 11.0 51 5.9 SW 11 13 6 7 1016.8 1016.7 0.0
04/04:30pm 22.3 20.3 10.1 46 6.7 WSW 11 15 6 8 1016.7 1016.6 0.0
04/04:00pm 22.6 20.6 10.1 45 6.9 W 11 15 6 8 1016.5 1016.4 0.0
04/03:30pm 22.9 21.3 10.3 45 7.0 SSW 9 17 5 9 1016.5 1016.4 0.0
04/03:00pm 23.2 21.7 10.6 45 7.0 SW 9 22 5 12 1016.4 1016.3 0.0
04/02:30pm 22.8 21.4 9.6 43 7.2 SSE 7 11 4 6 1016.5 1016.4 0.0
04/02:00pm 22.8 21.5 9.9 44 7.1 W 7 13 4 7 1016.6 1016.5 0.0
04/01:30pm 22.6 21.4 9.7 44 7.0 S 6 13 3 7 1016.7 1016.6 0.0
04/01:00pm 21.6 20.2 9.5 46 6.5 SSW 7 15 4 8 1017.0 1016.9 0.0
04/12:30pm 21.6 21.0 10.4 49 6.2 SSW 4 9 2 5 1017.5 1017.3 0.0
04/12:00pm 20.2 18.8 9.7 51 5.6 SSE 7 13 4 7 1017.8 1017.6 0.0
04/11:30am 19.7 18.0 9.9 53 5.3 S 9 13 5 7 1018.3 1018.1 0.0
04/11:00am 19.1 17.0 9.9 55 4.9 SE 11 17 6 9 1018.3 1018.1 0.0
04/10:30am 18.3 16.7 10.2 59 4.4 S 9 15 5 8 1018.4 1018.2 0.0
04/10:00am 18.1 17.2 10.5 61 4.1 SE 6 9 3 5 1018.4 1018.2 0.0
04/09:30am 16.9 16.0 10.7 67 3.3 ENE 6 7 3 4 1018.5 1018.3 0.0
04/09:00am 16.4 17.0 11.8 74 2.5 CALM 0 0 0 0 1018.4 1018.2 0.0
04/08:30am 15.0 15.1 11.4 79 1.9 WNW 2 7 1 4 1018.2 1018.0 0.0
04/08:00am 14.1 13.6 12.1 88 1.1 N 6 7 3 4 1017.9 1017.7 0.0
04/07:30am 12.4 11.9 12.1 98 0.2 NNW 6 7 3 4 1017.4 1017.2 0.0
04/07:00am 10.2 9.5 9.9 98 0.2 NNW 4 6 2 3 1016.9 1016.8 0.0
04/06:30am 10.4 9.3 10.1 98 0.2 NNW 6 7 3 4 1016.4 1016.3 0.0
04/06:00am 9.9 8.7 9.6 98 0.2 N 6 7 3 4 1016.0 1015.9 0.0
04/05:30am 9.9 8.5 9.6 98 0.2 N 7 7 4 4 1015.6 1015.5 0.0
04/05:00am 9.8 8.4 9.5 98 0.2 N 7 7 4 4 1015.4 1015.3 0.0
04/04:30am 10.1 9.0 9.8 98 0.2 NNE 6 7 3 4 1015.2 1015.1 0.0
04/04:00am 10.2 9.1 9.9 98 0.2 N 6 7 3 4 1015.1 1015.0 0.0
04/03:30am 10.3 9.2 10.0 98 0.2 N 6 7 3 4 1014.9 1014.8 0.0
04/03:00am 11.3 10.5 11.0 98 0.2 NNW 6 6 3 3 1014.8 1014.7 0.0
04/02:30am 12.5 13.1 12.0 97 0.3 CALM 0 0 0 0 1014.9 1014.8 0.0
04/02:00am 12.4 12.2 11.9 97 0.3 WNW 4 6 2 3 1015.0 1014.9 0.0
04/01:30am 12.6 11.9 12.1 97 0.3 WNW 7 7 4 4 1015.0 1014.9 0.0
04/01:00am 12.7 12.2 12.2 97 0.3 WNW 6 7 3 4 1015.1 1015.0 0.0
04/12:30am 13.8 13.5 13.3 97 0.3 NW 7 9 4 5 1015.1 1015.0 0.0
04/12:00am 13.7 13.0 13.2 97 0.3 WNW 9 9 5 5 1015.3 1015.2 0.0
 
Date/Time
EST
Temp
°C
App
Temp
°C
Dew
Point
Rel
Hum
%
Delta-T
°C
Wind Press
QNH
hPa
Press
MSL
hPa
Rain
since 9 am
mm
Dir
 
Spd
km/h
Gust
km/h
Spd
kts
Gust
kts
03/11:30pm 13.9 13.6 13.4 97 0.3 WNW 7 7 4 4 1015.3 1015.2 0.0
03/11:00pm 14.6 13.8 14.1 97 0.3 WNW 11 15 6 8 1015.2 1015.1 0.0
03/10:30pm 15.8 14.1 14.7 93 0.6 WNW 17 20 9 11 1015.3 1015.2 0.0
03/10:00pm 15.1 14.1 14.6 97 0.3 NW 13 15 7 8 1015.2 1015.1 0.0
03/09:30pm 16.0 15.2 15.2 95 0.5 NNW 13 15 7 8 1015.0 1014.9 0.0
03/09:00pm 16.7 15.8 14.9 89 1.0 NNW 13 15 7 8 1014.6 1014.5 0.0
03/08:30pm 16.7 16.3 15.2 91 0.9 NNW 11 13 6 7 1014.5 1014.4 0.0
03/08:00pm 16.7 17.0 14.9 89 1.0 NNW 7 9 4 5 1014.1 1014.0 0.0
03/07:30pm 16.8 17.0 14.8 88 1.2 NNW 7 7 4 4 1013.7 1013.5 0.0
03/07:00pm 16.8 16.4 15.2 90 0.9 NW 11 11 6 6 1013.3 1013.1 0.0
03/06:30pm 17.3 16.6 14.2 82 1.8 NW 11 13 6 7 1013.1 1012.9 0.0
03/06:00pm 17.8 17.2 14.5 81 1.9 NW 11 11 6 6 1012.6 1012.4 0.0
03/05:30pm 18.2 17.4 13.9 76 2.5 WNW 11 13 6 7 1012.5 1012.3 0.0
03/05:00pm 19.8 17.9 13.0 65 3.9 WNW 15 19 8 10 1012.3 1012.1 0.0
03/04:30pm 21.5 18.6 12.4 56 5.2 WNW 19 24 10 13 1011.9 1011.7 0.0
03/04:00pm 21.5 18.6 12.9 58 4.9 WNW 20 30 11 16 1012.0 1011.8 0.0
03/03:30pm 22.6 20.0 13.1 55 5.5 WNW 19 26 10 14 1011.5 1011.4 0.0
03/03:00pm 22.4 20.3 15.3 64 4.3 NW 20 28 11 15 1011.8 1011.6 0.0
03/02:30pm 22.2 20.1 15.1 64 4.2 NW 20 28 11 15 1012.0 1011.8 0.0
03/02:00pm 22.0 19.6 14.4 62 4.5 WNW 20 28 11 15 1012.4 1012.2 0.0
03/01:30pm 22.1 19.8 14.7 63 4.4 WNW 20 26 11 14 1012.8 1012.6 0.0
03/01:00pm 22.3 21.3 16.6 70 3.5 WNW 17 24 9 13 1013.0 1012.8 0.0
03/12:30pm 20.9 18.6 15.7 72 3.1 WNW 22 30 12 16 1013.3 1013.1 0.0
03/12:00pm 20.9 19.4 16.7 77 2.6 NW 20 26 11 14 1013.7 1013.5 0.0
03/11:30am 20.4 18.5 15.2 72 3.1 NNW 19 22 10 12 1014.1 1014.0 0.0
03/11:00am 20.4 20.4 18.2 87 1.4 NNW 15 19 8 10 1014.6 1014.5 0.0
03/10:30am 18.7 19.7 17.7 94 0.6 NNW 9 15 5 8 1015.1 1015.0 0.0
03/10:00am 19.3 18.8 17.8 91 0.9 NNW 17 20 9 11 1015.3 1015.2 0.0
03/09:30am 18.1 18.4 17.8 98 0.2 NNW 13 17 7 9 1015.4 1015.3 0.0
03/09:00am 18.0 18.2 17.7 98 0.2 NW 13 15 7 8 1015.5 1015.4 43.0
03/08:30am 17.6 18.0 17.3 98 0.2 NNW 11 17 6 9 1015.4 1015.3 43.0
03/08:00am 17.2 17.9 17.0 99 0.1 NNW 9 13 5 7 1015.2 1015.1 43.0
03/07:30am 16.7 16.5 16.7 100 0.0 NW 13 17 7 9 1015.1 1015.0 43.0
03/07:00am 16.5 16.5 16.3 99 0.1 N 11 13 6 7 1014.6 1014.5 43.0
03/06:30am 16.8 17.4 16.8 100 0.0 NNW 9 13 5 7 1014.6 1014.5 43.0
03/06:00am 16.7 16.8 16.5 99 0.1 N 11 15 6 8 1014.3 1014.2 43.0
03/05:30am 16.9 17.5 16.7 99 0.1 N 9 13 5 7 1014.1 1014.0 43.0
03/05:00am 16.8 17.3 16.6 99 0.1 NNW 9 13 5 7 1014.0 1013.8 43.0
03/04:30am 16.8 17.3 16.6 99 0.1 N 9 11 5 6 1013.8 1013.6 43.0
03/04:00am 16.8 17.3 16.6 99 0.1 N 9 13 5 7 1013.8 1013.6 43.0
03/03:30am 16.8 17.3 16.6 99 0.1 N 9 13 5 7 1013.8 1013.6 43.0
03/03:00am 16.9 16.7 16.7 99 0.1 N 13 19 7 10 1014.1 1014.0 43.0
03/02:30am 16.8 16.6 16.6 99 0.1 NNW 13 19 7 10 1014.3 1014.2 43.0
03/02:00am 16.9 16.3 16.7 99 0.1 NNW 15 20 8 11 1014.6 1014.5 43.0
03/01:30am 17.0 17.2 16.8 99 0.1 N 11 17 6 9 1014.7 1014.6 43.0
03/01:00am 16.9 16.7 16.7 99 0.1 N 13 19 7 10 1015.2 1015.1 43.0
03/12:30am 16.8 16.2 16.6 99 0.1 N 15 20 8 11 1015.3 1015.2 43.0
03/12:00am 16.8 16.2 16.6 99 0.1 N 15 20 8 11 1015.5 1015.4 43.0
 
Date/Time
EST
Temp
°C
App
Temp
°C
Dew
Point
Rel
Hum
%
Delta-T
°C
Wind Press
QNH
hPa
Press
MSL
hPa
Rain
since 9 am
mm
Dir
 
Spd
km/h
Gust
km/h
Spd
kts
Gust
kts
02/11:30pm 16.9 15.9 16.7 99 0.1 N 17 22 9 12 1015.9 1015.8 43.0
02/11:00pm 17.0 16.1 16.8 99 0.1 N 17 24 9 13 1016.0 1015.9 43.0
02/10:30pm 17.2 16.7 17.0 99 0.1 N 15 20 8 11 1016.0 1015.9 43.0
02/10:00pm 17.3 16.5 17.1 99 0.1 N 17 22 9 12 1016.3 1016.2 43.0
02/09:30pm 17.3 17.3 17.1 99 0.1 N 13 22 7 12 1016.1 1016.0 43.0
02/09:00pm 17.4 17.0 17.2 99 0.1 N 15 20 8 11 1016.2 1016.1 43.0
02/08:30pm 17.4 17.4 17.2 99 0.1 N 13 19 7 10 1016.1 1016.0 43.0
02/08:00pm 17.5 18.0 17.5 100 0.0 N 11 17 6 9 1015.9 1015.8 42.8
02/07:30pm 17.6 17.7 17.4 99 0.1 NNE 13 17 7 9 1015.8 1015.7 42.8
02/07:00pm 17.9 18.1 17.7 99 0.1 N 13 19 7 10 1015.7 1015.6 42.8
02/06:30pm 18.0 18.6 17.8 99 0.1 N 11 15 6 8 1015.7 1015.6 42.8
02/06:00pm 18.2 18.5 18.0 99 0.1 NNW 13 19 7 10 1015.6 1015.5 42.6
02/05:30pm 18.5 19.7 18.3 99 0.1 N 9 15 5 8 1015.2 1015.1 39.8
02/05:00pm 18.7 19.6 18.5 99 0.1 NNE 11 13 6 7 1014.9 1014.8 38.8
02/04:30pm 18.8 19.8 18.6 99 0.1 N 11 15 6 8 1014.5 1014.4 38.8
02/04:00pm 18.6 18.1 18.6 100 0.0 NNE 19 26 10 14 1014.1 1014.0 38.8
02/03:30pm 18.4 18.2 18.4 100 0.0 NNE 17 24 9 13 1013.9 1013.7 38.8
02/03:00pm 17.7 19.1 17.7 100 0.0 N 7 11 4 6 1014.7 1014.6 38.8
02/02:42pm 17.1 17.1 17.1 100 0.0 ENE 13 24 7 13 1013.5 1013.3 38.8
02/02:30pm 17.3 18.7 17.3 100 0.0 NNE 6 7 3 4 1015.7 1015.6 38.6
02/02:00pm 17.0 18.0 16.8 99 0.1 NW 7 11 4 6 1016.0 1015.9 37.4
02/01:30pm 16.8 14.4 16.3 97 0.3 N 24 48 13 26 1016.5 1016.4 21.8
02/01:26pm 17.9 15.7 16.9 94 0.6 NNW 24 48 13 26 1016.2 1016.1 13.2
02/01:25pm 17.7 15.3 15.5 87 1.3 NNW 22 48 12 26 1016.1 1016.0 10.8
02/01:00pm 20.2 21.4 19.0 93 0.8 NNW 11 13 6 7 1015.7 1015.6 0.0
02/12:30pm 20.1 21.1 18.6 91 0.9 NNW 11 17 6 9 1016.0 1015.9 0.0
02/12:00pm 20.1 20.8 18.8 92 0.8 N 13 17 7 9 1016.4 1016.3 0.0
02/11:30am 20.3 21.0 18.8 91 0.9 N 13 17 7 9 1016.6 1016.5 0.0
02/11:00am 20.5 21.4 19.3 93 0.8 NNE 13 17 7 9 1016.9 1016.8 0.0
02/10:30am 20.2 20.2 19.0 93 0.8 N 17 20 9 11 1017.2 1017.1 0.0
02/10:00am 20.7 21.3 20.2 97 0.3 NNE 17 20 9 11 1017.4 1017.2 0.0
02/09:30am 19.2 19.2 18.9 98 0.2 NNE 17 22 9 12 1017.7 1017.5 0.0
02/09:00am 18.8 19.0 18.5 98 0.2 NNE 15 20 8 11 1017.6 1017.4 0.2
02/08:30am 18.4 18.4 18.2 99 0.1 NNE 15 19 8 10 1017.6 1017.4 0.2
02/08:00am 18.1 19.2 18.1 100 0.0 NE 9 13 5 7 1017.6 1017.4 0.2
02/07:30am 17.8 18.8 17.8 100 0.0 ENE 9 11 5 6 1017.1 1017.0 0.2
02/07:00am 17.6 19.1 17.6 100 0.0 E 6 9 3 5 1017.1 1017.0 0.2
02/06:30am 17.4 19.6 17.4 100 0.0 NNW 2 7 1 4 1017.1 1017.0 0.2
02/06:00am 17.7 20.0 17.7 100 0.0 N 2 6 1 3 1016.9 1016.8 0.2
02/05:30am 17.6 19.1 17.6 100 0.0 NNW 6 7 3 4 1016.5 1016.4 0.2
02/05:00am 17.6 18.9 17.6 100 0.0 N 7 11 4 6 1016.1 1016.0 0.2
02/04:30am 17.7 19.1 17.7 100 0.0 NNW 7 9 4 5 1016.0 1015.9 0.2
02/04:00am 17.8 18.8 17.8 100 0.0 NNE 9 13 5 7 1015.9 1015.8 0.2
02/03:30am 17.8 18.8 17.8 100 0.0 N 9 13 5 7 1016.0 1015.9 0.2
02/03:00am 17.7 19.2 17.7 100 0.0 WNW 6 9 3 5 1016.3 1016.2 0.2
02/02:30am 17.5 18.8 17.5 100 0.0 NNE 7 11 4 6 1016.2 1016.1 0.2
02/02:00am 17.4 17.5 17.4 100 0.0 NE 13 19 7 10 1016.3 1016.2 0.2
02/01:30am 17.3 18.1 17.3 100 0.0 NE 9 15 5 8 1016.5 1016.4 0.2
02/01:00am 17.4 18.2 17.4 100 0.0 NNE 9 11 5 6 1016.7 1016.6 0.2
02/12:30am 17.0 18.1 17.0 100 0.0 NE 7 9 4 5 1016.9 1016.8 0.2
02/12:00am 16.7 17.6 16.7 100 0.0 ENE 7 9 4 5 1017.1 1017.0 0.2
 
Date/Time
EST
Temp
°C
App
Temp
°C
Dew
Point
Rel
Hum
%
Delta-T
°C
Wind Press
QNH
hPa
Press
MSL
hPa
Rain
since 9 am
mm
Dir
 
Spd
km/h
Gust
km/h
Spd
kts
Gust
kts
01/11:30pm 16.5 17.0 16.5 100 0.0 ENE 9 13 5 7 1017.6 1017.4 0.2
01/11:00pm 16.7 16.8 16.5 99 0.1 ENE 11 13 6 7 1017.7 1017.5 0.2
01/10:30pm 17.4 17.8 17.2 99 0.1 NE 11 15 6 8 1017.9 1017.7 0.2
01/10:00pm 17.6 18.1 17.4 99 0.1 N 11 15 6 8 1018.1 1017.9 0.2

Other Formats:

Comma delimited format used in spreadsheet applications
http://www.bom.gov.au/fwo/IDN60801/IDN60801.95718.axf

JavaScript Object Notation format (JSON) in row-major order
http://www.bom.gov.au/fwo/IDN60801/IDN60801.95718.json